createdAt,value
2017-05-28T00:01:19.368Z,22.95
2017-05-28T00:03:45.723Z,22.29
2017-05-28T00:06:12.057Z,22.62
2017-05-28T00:08:38.410Z,22.60
2017-05-28T00:11:04.759Z,22.89
2017-05-28T00:13:31.103Z,22.74
2017-05-28T00:15:57.478Z,22.56
2017-05-28T00:18:23.834Z,22.87
2017-05-28T00:20:50.206Z,23.36
2017-05-28T00:23:16.534Z,23.20
2017-05-28T00:25:42.885Z,22.60
2017-05-28T00:28:09.229Z,22.72
2017-05-28T00:30:35.573Z,22.74
2017-05-28T00:33:01.910Z,22.40
2017-05-28T00:35:28.215Z,22.34
2017-05-28T00:37:54.553Z,22.18
2017-05-28T00:40:20.951Z,22.35
2017-05-28T00:42:47.278Z,22.28
2017-05-28T00:45:13.629Z,22.40
2017-05-28T00:47:39.952Z,23.07
2017-05-28T00:50:06.366Z,22.19
2017-05-28T00:52:32.721Z,22.48
2017-05-28T00:54:59.117Z,22.60
2017-05-28T00:57:25.445Z,22.40
2017-05-28T00:59:51.782Z,22.97
2017-05-28T01:02:18.166Z,22.55
2017-05-28T01:04:44.504Z,22.06
2017-05-28T01:07:10.835Z,21.85
2017-05-28T01:09:37.160Z,21.82
2017-05-28T01:12:03.485Z,22.09
2017-05-28T01:14:29.804Z,23.26
2017-05-28T01:16:56.318Z,22.14
2017-05-28T01:19:22.648Z,21.98
2017-05-28T01:21:49.016Z,21.27
2017-05-28T01:24:15.369Z,21.22
2017-05-28T01:26:41.719Z,21.35
2017-05-28T01:29:08.047Z,22.04
2017-05-28T01:31:34.407Z,21.93
2017-05-28T01:34:00.786Z,21.66
2017-05-28T01:36:27.188Z,21.06
2017-05-28T01:38:53.586Z,21.20
2017-05-28T01:41:19.953Z,21.67
2017-05-28T01:43:46.283Z,21.93
2017-05-28T01:46:12.684Z,23.28
2017-05-28T01:48:39.059Z,21.93
2017-05-28T01:51:05.415Z,22.04
2017-05-28T01:53:31.744Z,20.60
2017-05-28T01:55:58.094Z,20.56
2017-05-28T01:58:24.444Z,21.26
2017-05-28T02:00:50.783Z,22.40
2017-05-28T02:03:17.118Z,22.75
2017-05-28T02:05:43.431Z,21.83
2017-05-28T02:08:09.777Z,20.66
2017-05-28T02:10:36.111Z,21.20
2017-05-28T02:13:02.445Z,21.97
2017-05-28T02:15:28.781Z,20.95
2017-05-28T02:17:55.158Z,22.45
2017-05-28T02:20:21.504Z,23.02
2017-05-28T02:22:47.835Z,20.88
2017-05-28T02:25:14.163Z,20.97
2017-05-28T02:27:40.488Z,20.26
2017-05-28T02:30:06.832Z,20.70
2017-05-28T02:32:33.198Z,21.71
2017-05-28T02:34:59.537Z,21.04
2017-05-28T02:37:25.900Z,21.24
2017-05-28T02:39:52.269Z,20.27
2017-05-28T02:42:18.610Z,20.88
2017-05-28T02:44:44.965Z,20.76
2017-05-28T02:47:11.330Z,19.77
2017-05-28T02:49:37.702Z,19.59
2017-05-28T02:52:04.094Z,19.68
2017-05-28T02:54:30.410Z,19.65
2017-05-28T02:56:56.739Z,19.58
2017-05-28T02:59:23.077Z,19.74
2017-05-28T03:01:49.426Z,19.73
2017-05-28T03:04:15.757Z,19.59
2017-05-28T03:06:42.129Z,19.86
2017-05-28T03:09:08.468Z,20.40
2017-05-28T03:11:34.850Z,21.53
2017-05-28T03:14:01.176Z,22.06
2017-05-28T03:16:27.491Z,20.63
2017-05-28T03:18:53.817Z,19.88
2017-05-28T03:21:20.236Z,20.09
2017-05-28T03:23:46.592Z,21.18
2017-05-28T03:26:12.922Z,19.90
2017-05-28T03:28:39.261Z,20.01
2017-05-28T03:31:05.597Z,20.46
2017-05-28T03:33:32.390Z,21.04
2017-05-28T03:35:58.729Z,22.15
2017-05-28T03:38:25.058Z,20.90
2017-05-28T03:40:51.408Z,20.80
2017-05-28T03:43:17.742Z,19.48
2017-05-28T03:45:44.074Z,20.92
2017-05-28T03:48:10.407Z,19.86
2017-05-28T03:50:36.757Z,20.19
2017-05-28T03:53:03.081Z,20.28
2017-05-28T03:55:29.447Z,20.60
2017-05-28T03:57:56.182Z,20.25
2017-05-28T04:00:22.529Z,19.66
2017-05-28T04:02:48.862Z,20.25
2017-05-28T04:05:15.190Z,21.53
2017-05-28T04:07:41.529Z,20.74
2017-05-28T04:10:07.887Z,20.74
2017-05-28T04:12:34.209Z,20.15
2017-05-28T04:15:00.666Z,19.71
2017-05-28T04:17:26.999Z,19.78
2017-05-28T04:19:53.362Z,20.01
2017-05-28T04:22:19.706Z,20.17
2017-05-28T04:24:46.046Z,20.50
2017-05-28T04:27:12.412Z,20.50
2017-05-28T04:29:38.761Z,21.13
2017-05-28T04:32:05.121Z,22.03
2017-05-28T04:34:31.540Z,21.90
2017-05-28T04:36:57.861Z,21.90
2017-05-28T04:39:24.201Z,22.08
2017-05-28T04:41:50.581Z,22.03
2017-05-28T04:44:16.922Z,21.31
2017-05-28T04:46:43.235Z,21.53
2017-05-28T04:49:09.561Z,21.76
2017-05-28T04:51:35.906Z,21.77
2017-05-28T04:54:02.348Z,22.33
2017-05-28T04:56:28.668Z,22.01
2017-05-28T04:58:55.016Z,22.04
2017-05-28T05:01:21.366Z,21.54
2017-05-28T05:03:47.791Z,20.97
2017-05-28T05:06:14.127Z,21.27
2017-05-28T05:08:40.451Z,21.16
2017-05-28T05:11:06.785Z,21.54
2017-05-28T05:13:33.166Z,22.24
2017-05-28T05:15:59.525Z,22.60
2017-05-28T05:18:25.886Z,22.60
2017-05-28T05:20:52.255Z,22.52
2017-05-28T05:23:18.587Z,22.41
2017-05-28T05:25:44.946Z,22.69
2017-05-28T05:28:11.259Z,21.13
2017-05-28T05:30:37.597Z,21.22
2017-05-28T05:33:03.968Z,20.92
2017-05-28T05:35:30.353Z,21.70
2017-05-28T05:37:56.709Z,22.60
2017-05-28T05:40:23.137Z,22.11
2017-05-28T05:42:49.438Z,20.89
2017-05-28T05:45:15.785Z,21.44
2017-05-28T05:47:42.121Z,22.18
2017-05-28T05:50:08.500Z,21.11
2017-05-28T05:52:34.830Z,22.15
2017-05-28T05:55:01.196Z,22.09
2017-05-28T05:57:27.553Z,22.31
2017-05-28T05:59:54.015Z,20.86
2017-05-28T06:02:20.335Z,20.92
2017-05-28T06:04:46.690Z,20.96
2017-05-28T06:07:13.030Z,22.39
2017-05-28T06:09:39.396Z,22.62
2017-05-28T06:12:05.738Z,22.38
2017-05-28T06:14:32.074Z,21.80
2017-05-28T06:16:58.388Z,21.54
2017-05-28T06:19:24.793Z,20.94
2017-05-28T06:21:51.105Z,22.16
2017-05-28T06:24:17.558Z,22.33
2017-05-28T06:26:43.914Z,20.66
2017-05-28T06:29:10.282Z,22.05
2017-05-28T06:31:36.608Z,21.06
2017-05-28T06:34:02.960Z,21.55
2017-05-28T06:36:29.310Z,21.18
2017-05-28T06:38:55.831Z,22.07
2017-05-28T06:41:22.156Z,21.35
2017-05-28T06:43:48.537Z,21.46
2017-05-28T06:46:14.885Z,21.62
2017-05-28T06:48:41.220Z,21.11
2017-05-28T06:51:07.560Z,20.61
2017-05-28T06:53:33.898Z,20.42
2017-05-28T06:56:00.266Z,20.69
2017-05-28T06:58:26.615Z,20.24
2017-05-28T07:00:52.983Z,20.59
2017-05-28T07:03:19.323Z,20.94
2017-05-28T07:05:45.681Z,22.11
2017-05-28T07:08:12.022Z,22.17
2017-05-28T07:10:38.346Z,22.14
2017-05-28T07:13:04.684Z,21.25
2017-05-28T07:15:31.031Z,20.48
2017-05-28T07:17:57.385Z,20.59
2017-05-28T07:20:23.692Z,22.01
2017-05-28T07:22:50.017Z,22.47
2017-05-28T07:25:16.452Z,22.65
2017-05-28T07:27:42.804Z,22.63
2017-05-28T07:30:09.198Z,22.59
2017-05-28T07:32:35.528Z,22.71
2017-05-28T07:35:01.859Z,22.78
2017-05-28T07:37:28.167Z,22.60
2017-05-28T07:39:54.528Z,22.42
2017-05-28T07:42:20.864Z,22.33
2017-05-28T07:44:47.235Z,22.57
2017-05-28T07:47:13.561Z,22.78
2017-05-28T07:49:40.121Z,22.50
2017-05-28T07:52:08.327Z,22.85
2017-05-28T07:54:35.203Z,22.50
2017-05-28T07:57:02.079Z,22.60
2017-05-28T07:59:28.445Z,22.57
2017-05-28T08:01:54.790Z,22.73
2017-05-28T08:04:21.146Z,22.76
2017-05-28T08:06:47.513Z,22.60
2017-05-28T08:09:13.862Z,23.28
2017-05-28T08:11:40.216Z,23.20
2017-05-28T08:14:06.584Z,23.03
2017-05-28T08:16:32.932Z,23.08
2017-05-28T08:18:59.257Z,23.59
2017-05-28T08:21:25.579Z,23.46
2017-05-28T08:23:51.921Z,23.60
2017-05-28T08:26:18.264Z,23.69
2017-05-28T08:28:44.608Z,24.26
2017-05-28T08:31:10.994Z,24.57
2017-05-28T08:33:37.349Z,24.06
2017-05-28T08:36:03.694Z,24.18
2017-05-28T08:38:30.037Z,24.31
2017-05-28T08:40:56.385Z,24.52
2017-05-28T08:43:22.718Z,24.62
2017-05-28T08:45:49.031Z,24.58
2017-05-28T08:48:15.370Z,24.74
2017-05-28T08:50:41.690Z,24.79
2017-05-28T08:53:08.017Z,24.94
2017-05-28T08:55:34.319Z,24.97
2017-05-28T08:58:00.686Z,25.43
2017-05-28T09:00:26.994Z,25.09
2017-05-28T09:02:53.348Z,24.66
2017-05-28T09:05:19.687Z,24.12
2017-05-28T09:07:45.991Z,23.15
2017-05-28T09:10:12.366Z,23.08
2017-05-28T09:12:38.703Z,22.64
2017-05-28T09:15:05.060Z,22.63
2017-05-28T09:17:31.413Z,22.20
2017-05-28T09:19:57.730Z,22.06
2017-05-28T09:22:24.135Z,22.31
2017-05-28T09:24:50.466Z,22.25
2017-05-28T09:27:16.842Z,22.28
2017-05-28T09:29:43.187Z,22.28
2017-05-28T09:32:09.532Z,22.41
2017-05-28T09:34:35.914Z,22.84
2017-05-28T09:37:02.255Z,23.09
2017-05-28T09:39:28.594Z,23.12
2017-05-28T09:41:54.946Z,23.15
2017-05-28T09:44:21.275Z,23.11
2017-05-28T09:46:47.639Z,22.06
2017-05-28T09:49:13.971Z,21.67
2017-05-28T09:51:40.323Z,21.18
2017-05-28T09:54:06.711Z,21.33
2017-05-28T09:56:33.085Z,21.60
2017-05-28T09:58:59.426Z,21.94
2017-05-28T10:01:25.800Z,22.75
2017-05-28T10:03:52.206Z,21.25
2017-05-28T10:06:18.541Z,21.73
2017-05-28T10:08:44.901Z,22.37
2017-05-28T10:11:11.331Z,22.76
2017-05-28T10:13:37.702Z,22.91
2017-05-28T10:16:04.048Z,22.93
2017-05-28T10:18:30.414Z,22.50
2017-05-28T10:20:56.828Z,22.21
2017-05-28T10:23:23.156Z,22.52
2017-05-28T10:25:49.526Z,22.16
2017-05-28T10:28:15.866Z,22.17
2017-05-28T10:30:42.203Z,22.50
2017-05-28T10:33:08.539Z,22.30
2017-05-28T10:35:34.908Z,22.54
2017-05-28T10:38:01.253Z,22.79
2017-05-28T10:40:27.640Z,22.92
2017-05-28T10:42:54.032Z,22.97
2017-05-28T10:45:20.402Z,22.40
2017-05-28T10:47:46.808Z,22.45
2017-05-28T10:50:13.175Z,22.65
2017-05-28T10:52:39.516Z,22.79
2017-05-28T10:55:05.827Z,22.61
2017-05-28T10:57:32.181Z,22.27
2017-05-28T10:59:58.561Z,22.84
2017-05-28T11:02:25.695Z,22.70
2017-05-28T11:04:52.051Z,22.56
2017-05-28T11:07:18.401Z,22.91
2017-05-28T11:09:44.757Z,22.89
2017-05-28T11:12:11.126Z,22.81
2017-05-28T11:14:37.463Z,22.95
2017-05-28T11:17:03.825Z,23.20
2017-05-28T11:19:31.085Z,22.98
2017-05-28T11:22:12.358Z,23.62
2017-05-28T11:24:38.709Z,23.09
2017-05-28T11:27:05.016Z,23.69
2017-05-28T11:29:31.364Z,23.72
2017-05-28T11:31:57.722Z,23.75
2017-05-28T11:34:24.099Z,24.00
2017-05-28T11:36:50.511Z,24.04
2017-05-28T11:39:16.873Z,23.87
2017-05-28T11:41:43.227Z,24.21
2017-05-28T11:44:09.573Z,24.55
2017-05-28T11:46:35.934Z,24.61
2017-05-28T11:49:02.298Z,24.83
2017-05-28T11:51:28.680Z,25.33
2017-05-28T11:53:55.016Z,25.38
2017-05-28T11:56:21.340Z,25.52
2017-05-28T11:58:47.703Z,25.29
2017-05-28T12:01:14.045Z,25.20
2017-05-28T12:03:40.401Z,25.40
2017-05-28T12:06:06.745Z,25.56
2017-05-28T12:08:33.083Z,25.74
2017-05-28T12:10:59.474Z,26.01
2017-05-28T12:13:25.834Z,26.50
2017-05-28T12:15:52.170Z,26.76
2017-05-28T12:18:18.483Z,27.53
2017-05-28T12:20:44.861Z,27.10
2017-05-28T12:23:11.211Z,26.86
2017-05-28T12:25:37.531Z,27.03
2017-05-28T12:28:03.909Z,27.74
2017-05-28T12:30:30.302Z,28.15
2017-05-28T12:32:56.641Z,27.90
2017-05-28T12:35:22.988Z,28.45
2017-05-28T12:37:49.312Z,28.79
2017-05-28T12:40:15.667Z,28.57
2017-05-28T12:42:42.016Z,29.49
2017-05-28T12:45:08.378Z,28.80
2017-05-28T12:47:34.724Z,28.68
2017-05-28T12:50:01.133Z,29.14
2017-05-28T12:52:27.462Z,29.36
2017-05-28T12:54:53.807Z,29.69
2017-05-28T12:57:20.142Z,30.09
2017-05-28T12:59:46.475Z,30.03
2017-05-28T13:02:12.812Z,30.10
2017-05-28T13:04:39.126Z,30.10
2017-05-28T13:07:05.475Z,30.56
2017-05-28T13:09:31.799Z,30.49
2017-05-28T13:11:58.147Z,30.23
2017-05-28T13:14:24.518Z,30.34
2017-05-28T13:16:50.835Z,29.56
2017-05-28T13:19:17.227Z,30.57
2017-05-28T13:21:43.571Z,29.27
2017-05-28T13:24:09.933Z,29.57
2017-05-28T13:26:36.245Z,30.36
2017-05-28T13:29:02.588Z,29.60
2017-05-28T13:31:28.928Z,29.54
2017-05-28T13:33:55.248Z,29.81
2017-05-28T13:36:21.601Z,29.97
2017-05-28T13:38:47.954Z,29.51
2017-05-28T13:41:14.351Z,29.18
2017-05-28T13:43:40.702Z,29.65
2017-05-28T13:46:07.077Z,29.55
2017-05-28T13:48:33.492Z,29.38
2017-05-28T13:50:59.855Z,29.83
2017-05-28T13:53:26.286Z,29.88
2017-05-28T13:55:53.089Z,29.94
2017-05-28T13:58:19.429Z,29.66
2017-05-28T14:00:46.523Z,30.28
2017-05-28T14:03:13.033Z,30.21
2017-05-28T14:05:39.437Z,29.91
2017-05-28T14:08:05.772Z,30.06
2017-05-28T14:10:32.109Z,30.21
2017-05-28T14:12:58.470Z,30.58
2017-05-28T14:15:24.820Z,30.77
2017-05-28T14:17:51.165Z,30.51
2017-05-28T14:20:17.527Z,30.39
2017-05-28T14:22:43.848Z,29.89
2017-05-28T14:25:10.184Z,30.22
2017-05-28T14:27:36.559Z,30.95
2017-05-28T14:30:02.925Z,30.67
2017-05-28T14:32:29.294Z,30.39
2017-05-28T14:34:55.695Z,30.24
2017-05-28T14:37:22.007Z,29.96
2017-05-28T14:39:48.407Z,30.14
2017-05-28T14:42:14.797Z,30.62
2017-05-28T14:44:41.187Z,30.20
2017-05-28T14:47:07.549Z,30.63
2017-05-28T14:49:33.913Z,31.15
2017-05-28T14:52:00.269Z,30.98
2017-05-28T14:54:26.631Z,30.66
2017-05-28T14:56:52.980Z,30.47
2017-05-28T14:59:19.438Z,30.49
2017-05-28T15:01:45.793Z,30.08
2017-05-28T15:04:12.143Z,30.61
2017-05-28T15:06:38.464Z,30.04
2017-05-28T15:09:04.807Z,31.10
2017-05-28T15:11:31.143Z,30.79
2017-05-28T15:13:57.480Z,29.79
2017-05-28T15:16:23.825Z,29.88
2017-05-28T15:18:50.205Z,29.86
2017-05-28T15:21:16.514Z,30.15
2017-05-28T15:23:42.849Z,30.41
2017-05-28T15:26:09.230Z,30.30
2017-05-28T15:28:35.596Z,30.77
2017-05-28T15:31:01.953Z,30.11
2017-05-28T15:33:28.305Z,30.17
2017-05-28T15:35:54.673Z,30.14
2017-05-28T15:38:21.058Z,30.28
2017-05-28T15:40:47.432Z,30.34
2017-05-28T15:43:13.792Z,30.40
2017-05-28T15:45:40.136Z,30.43
2017-05-28T15:48:06.552Z,30.58
2017-05-28T15:50:32.918Z,30.79
2017-05-28T15:52:59.340Z,31.00
2017-05-28T15:55:25.692Z,31.12
2017-05-28T15:57:52.008Z,30.72
2017-05-28T16:00:18.356Z,30.47
2017-05-28T16:02:44.701Z,31.00
2017-05-28T16:05:11.051Z,31.06
2017-05-28T16:07:37.397Z,30.94
2017-05-28T16:10:03.740Z,30.74
2017-05-28T16:12:30.086Z,30.57
2017-05-28T16:14:56.428Z,30.17
2017-05-28T16:17:22.791Z,30.84
2017-05-28T16:19:49.146Z,30.97
2017-05-28T16:22:15.483Z,30.89
2017-05-28T16:24:41.869Z,30.90
2017-05-28T16:27:08.232Z,31.02
2017-05-28T16:29:34.563Z,31.24
2017-05-28T16:32:00.904Z,30.69
2017-05-28T16:34:27.323Z,30.49
2017-05-28T16:36:53.671Z,30.05
2017-05-28T16:39:20.058Z,29.50
2017-05-28T16:41:46.388Z,29.51
2017-05-28T16:44:12.848Z,29.35
2017-05-28T16:46:39.250Z,29.48
2017-05-28T16:49:05.626Z,29.48
2017-05-28T16:51:31.990Z,29.33
2017-05-28T16:53:58.332Z,29.62
2017-05-28T16:56:24.697Z,29.40
2017-05-28T16:58:51.088Z,29.47
2017-05-28T17:01:17.485Z,29.39
2017-05-28T17:03:43.865Z,29.24
2017-05-28T17:06:10.218Z,28.98
2017-05-28T17:08:36.607Z,29.27
2017-05-28T17:11:03.291Z,29.01
2017-05-28T17:13:29.719Z,29.32
2017-05-28T17:15:56.092Z,29.00
2017-05-28T17:18:22.465Z,29.01
2017-05-28T17:20:48.819Z,28.93
2017-05-28T17:23:15.155Z,29.04
2017-05-28T17:25:41.521Z,29.20
2017-05-28T17:28:07.911Z,29.02
2017-05-28T17:30:34.305Z,28.89
2017-05-28T17:33:00.629Z,29.12
2017-05-28T17:35:27.007Z,29.11
2017-05-28T17:37:53.379Z,29.07
2017-05-28T17:40:19.793Z,28.87
2017-05-28T17:42:46.234Z,28.95
2017-05-28T17:45:12.584Z,28.30
2017-05-28T17:47:38.943Z,28.44
2017-05-28T17:50:05.427Z,28.59
2017-05-28T17:52:31.884Z,28.27
2017-05-28T17:54:58.257Z,28.33
2017-05-28T17:57:24.641Z,28.05
2017-05-28T17:59:51.059Z,28.08
2017-05-28T18:02:17.376Z,27.85
2017-05-28T18:04:43.787Z,27.57
2017-05-28T18:07:10.811Z,27.73
2017-05-28T18:09:37.143Z,27.51
2017-05-28T18:12:03.495Z,27.64
2017-05-28T18:14:29.841Z,27.67
2017-05-28T18:16:56.267Z,27.73
2017-05-28T18:19:22.592Z,27.43
2017-05-28T18:21:48.989Z,27.43
2017-05-28T18:24:15.394Z,27.40
2017-05-28T18:26:41.736Z,26.63
2017-05-28T18:29:08.104Z,27.01
2017-05-28T18:31:34.455Z,26.65
2017-05-28T18:34:00.899Z,26.67
2017-05-28T18:36:27.259Z,26.65
2017-05-28T18:38:53.609Z,26.44
2017-05-28T18:41:19.959Z,26.38
2017-05-28T18:43:46.385Z,26.40
2017-05-28T18:46:12.774Z,26.41
2017-05-28T18:48:39.263Z,26.51
2017-05-28T18:51:05.963Z,26.38
2017-05-28T18:53:32.404Z,26.13
2017-05-28T18:55:59.622Z,26.17
2017-05-28T18:58:26.026Z,26.16
2017-05-28T19:00:52.834Z,25.91
2017-05-28T19:03:19.715Z,26.06
2017-05-28T19:05:46.148Z,26.05
2017-05-28T19:08:12.659Z,25.64
2017-05-28T19:10:39.475Z,25.74
2017-05-28T19:13:05.885Z,25.55
2017-05-28T19:15:32.286Z,26.57
2017-05-28T19:17:58.706Z,26.86
2017-05-28T19:20:25.320Z,25.41
2017-05-28T19:22:51.769Z,25.08
2017-05-28T19:25:18.226Z,25.24
2017-05-28T19:27:44.825Z,25.93
2017-05-28T19:30:11.219Z,26.46
2017-05-28T19:32:38.376Z,26.49
2017-05-28T19:35:05.474Z,26.52
2017-05-28T19:37:32.422Z,26.51
2017-05-28T19:39:58.882Z,26.58
2017-05-28T19:42:25.557Z,24.90
2017-05-28T19:44:52.638Z,24.28
2017-05-28T19:47:19.106Z,24.29
2017-05-28T19:49:46.107Z,24.21
2017-05-28T19:52:12.548Z,24.65
2017-05-28T19:54:39.540Z,25.67
2017-05-28T19:57:05.949Z,26.04
2017-05-28T19:59:32.280Z,25.47
2017-05-28T20:01:59.358Z,25.97
2017-05-28T20:04:25.744Z,26.00
2017-05-28T20:06:52.109Z,25.30
2017-05-28T20:09:18.482Z,23.80
2017-05-28T20:11:44.833Z,23.77
2017-05-28T20:14:11.207Z,23.85
2017-05-28T20:16:37.611Z,24.05
2017-05-28T20:19:03.970Z,24.45
2017-05-28T20:21:30.802Z,25.16
2017-05-28T20:23:57.387Z,25.47
2017-05-28T20:26:23.729Z,25.42
2017-05-28T20:28:50.156Z,25.39
2017-05-28T20:31:16.503Z,23.92
2017-05-28T20:33:42.846Z,24.06
2017-05-28T20:36:09.217Z,22.95
2017-05-28T20:38:35.582Z,23.03
2017-05-28T20:41:01.943Z,23.71
2017-05-28T20:43:28.287Z,23.93
2017-05-28T20:45:54.664Z,24.71
2017-05-28T20:48:21.037Z,25.14
2017-05-28T20:50:47.351Z,24.63
2017-05-28T20:53:13.979Z,24.19
2017-05-28T20:55:40.292Z,23.02
2017-05-28T20:58:06.632Z,22.48
2017-05-28T21:00:32.995Z,22.78
2017-05-28T21:02:59.376Z,23.18
2017-05-28T21:05:25.740Z,22.56
2017-05-28T21:07:52.064Z,22.89
2017-05-28T21:10:18.455Z,24.18
2017-05-28T21:12:44.772Z,24.55
2017-05-28T21:15:11.103Z,24.34
2017-05-28T21:17:37.466Z,24.43
2017-05-28T21:20:03.824Z,24.61
2017-05-28T21:22:30.190Z,24.02
2017-05-28T21:24:56.539Z,23.20
2017-05-28T21:27:22.911Z,22.66
2017-05-28T21:29:49.258Z,22.73
2017-05-28T21:32:15.595Z,22.99
2017-05-28T21:34:41.950Z,22.65
2017-05-28T21:37:08.288Z,22.22
2017-05-28T21:39:34.642Z,22.34
2017-05-28T21:42:01.013Z,22.42
2017-05-28T21:44:27.369Z,22.37
2017-05-28T21:46:53.727Z,22.71
2017-05-28T21:49:20.068Z,23.87
2017-05-28T21:51:46.385Z,24.33
2017-05-28T21:54:12.715Z,24.53
2017-05-28T21:56:39.079Z,24.53
2017-05-28T21:59:05.411Z,24.43
2017-05-28T22:01:31.820Z,24.51
2017-05-28T22:03:58.154Z,24.45
2017-05-28T22:06:24.507Z,23.89
2017-05-28T22:08:50.897Z,23.28
2017-05-28T22:11:17.279Z,23.02
2017-05-28T22:13:43.610Z,22.70
2017-05-28T22:16:10.899Z,22.64
2017-05-28T22:18:37.335Z,22.44
2017-05-28T22:21:06.924Z,22.60
2017-05-28T22:23:33.888Z,22.88
2017-05-28T22:26:00.290Z,22.15
2017-05-28T22:28:26.643Z,22.27
2017-05-28T22:30:52.987Z,22.23
2017-05-28T22:33:19.354Z,22.29
2017-05-28T22:35:45.705Z,22.43
2017-05-28T22:38:12.031Z,23.10
2017-05-28T22:40:38.398Z,23.20
2017-05-28T22:43:04.760Z,23.60
2017-05-28T22:45:31.109Z,23.77
2017-05-28T22:47:57.451Z,23.75
2017-05-28T22:50:23.832Z,23.80
2017-05-28T22:52:50.175Z,23.02
2017-05-28T22:55:16.514Z,23.49
2017-05-28T22:57:42.950Z,23.88
2017-05-28T23:00:09.597Z,22.94
2017-05-28T23:02:35.938Z,22.31
2017-05-28T23:05:02.260Z,22.85
2017-05-28T23:07:28.729Z,23.52
2017-05-28T23:09:55.079Z,23.30
2017-05-28T23:12:21.436Z,22.20
2017-05-28T23:14:47.797Z,22.30
2017-05-28T23:17:14.230Z,22.25
2017-05-28T23:19:40.645Z,21.63
2017-05-28T23:22:07.036Z,21.51
2017-05-28T23:24:33.376Z,20.99
2017-05-28T23:26:59.750Z,21.03
2017-05-28T23:29:26.161Z,21.27
2017-05-28T23:31:52.516Z,22.76
2017-05-28T23:34:18.897Z,22.30
2017-05-28T23:36:45.222Z,21.35
2017-05-28T23:39:11.562Z,22.56
2017-05-28T23:41:37.903Z,23.06
2017-05-28T23:44:04.246Z,23.20
2017-05-28T23:46:30.604Z,21.55
2017-05-28T23:48:56.962Z,20.71
2017-05-28T23:51:23.326Z,22.31
2017-05-28T23:53:49.669Z,22.98
2017-05-28T23:56:16.020Z,23.25
2017-05-28T23:58:42.380Z,22.13
